Time;durP1;ratioP1;P1;durP2;ratioP2;P2;SDS_P1;SDS_P2;PMS_P1;PMS_P2;Temp;Humidity;BMP_temperature;BMP_pressure;BME280_temperature;BME280_humidity;BME280_pressure;Samples;Min_cycle;Max_cycle;Signal;HPM_P1;HPM_P2
2023/07/18 00:00:27;;;;;;;6.20;2.87;;;16.00;1.00;;;;;;5081353;28;20447;-83
2023/07/18 00:02:55;;;;;;;6.63;2.90;;;16.00;1.00;;;;;;5081963;28;20476;-83
2023/07/18 00:05:22;;;;;;;6.30;3.13;;;15.90;1.00;;;;;;5080878;28;20452;-82
2023/07/18 00:07:49;;;;;;;5.60;3.00;;;15.90;1.00;;;;;;5081148;28;20458;-83
2023/07/18 00:10:20;;;;;;;4.70;3.37;;;15.90;1.00;;;;;;5081843;28;20464;-82
2023/07/18 00:12:47;;;;;;;7.33;2.53;;;15.90;1.00;;;;;;5081997;28;20542;-82
2023/07/18 00:15:14;;;;;;;6.03;3.10;;;15.90;1.00;;;;;;5082882;28;20903;-84
2023/07/18 00:17:43;;;;;;;4.57;3.03;;;15.90;1.00;;;;;;5082846;28;20565;-84
2023/07/18 00:20:13;;;;;;;5.97;3.23;;;15.90;1.00;;;;;;5082549;28;20466;-83
2023/07/18 00:22:41;;;;;;;5.63;2.90;;;15.90;1.00;;;;;;5080471;28;20552;-82
2023/07/18 00:25:11;;;;;;;6.70;2.70;;;15.90;1.00;;;;;;5080933;28;20861;-82
2023/07/18 00:27:38;;;;;;;5.70;2.80;;;15.90;1.60;;;;;;5080346;28;20478;-82
2023/07/18 00:30:07;;;;;;;5.30;2.93;;;15.90;1.00;;;;;;5080422;28;20463;-84
2023/07/18 00:32:34;;;;;;;5.37;3.27;;;15.90;1.00;;;;;;5081829;28;21060;-82
2023/07/18 00:35:03;;;;;;;5.20;3.13;;;15.90;1.00;;;;;;5080300;28;20835;-83
2023/07/18 00:37:31;;;;;;;4.37;2.67;;;15.90;1.00;;;;;;5080952;28;20542;-83
2023/07/18 00:39:58;;;;;;;5.60;3.70;;;15.80;1.00;;;;;;5082680;28;20481;-82
2023/07/18 00:42:25;;;;;;;5.87;2.80;;;15.80;1.00;;;;;;5081136;28;20471;-83
2023/07/18 00:44:52;;;;;;;4.30;3.37;;;15.80;10.20;;;;;;5080935;28;20447;-82
2023/07/18 00:47:19;;;;;;;6.30;3.10;;;15.80;4.60;;;;;;5081089;28;20483;-83
2023/07/18 00:49:47;;;;;;;4.90;2.60;;;15.80;13.60;;;;;;5081469;28;20465;-83
2023/07/18 00:52:16;;;;;;;4.17;2.97;;;15.80;17.20;;;;;;5082210;28;20518;-83
2023/07/18 00:54:44;;;;;;;4.87;2.97;;;15.80;16.90;;;;;;5081982;28;20542;-82
2023/07/18 00:57:12;;;;;;;6.33;2.67;;;15.70;17.10;;;;;;5080175;28;20859;-83
2023/07/18 00:59:39;;;;;;;4.07;2.40;;;15.70;15.30;;;;;;5082671;28;20447;-83
2023/07/18 01:02:06;;;;;;;4.70;2.93;;;15.70;24.50;;;;;;5081701;28;20503;-83
2023/07/18 01:04:33;;;;;;;3.93;2.80;;;15.70;37.40;;;;;;5081450;28;20533;-82
2023/07/18 01:07:01;;;;;;;4.50;2.87;;;15.70;35.00;;;;;;5080458;28;20469;-83
2023/07/18 01:09:29;;;;;;;3.57;2.57;;;15.70;41.80;;;;;;5081584;28;20905;-81
2023/07/18 01:11:56;;;;;;;4.63;2.73;;;15.60;42.00;;;;;;5081344;28;20448;-83
2023/07/18 01:14:25;;;;;;;5.03;2.77;;;15.70;34.20;;;;;;5081318;28;20451;-83
2023/07/18 01:16:52;;;;;;;5.57;3.10;;;15.70;18.00;;;;;;5079482;28;20562;-83
2023/07/18 01:19:19;;;;;;;7.13;2.67;;;15.60;24.90;;;;;;5081255;28;20550;-84
2023/07/18 01:21:47;;;;;;;4.73;2.90;;;15.70;21.40;;;;;;5079213;28;20489;-84
2023/07/18 01:24:14;;;;;;;6.43;3.47;;;15.60;16.80;;;;;;5076652;28;20530;-82
2023/07/18 01:26:41;;;;;;;4.27;2.53;;;15.60;20.00;;;;;;5077088;28;20487;-83
2023/07/18 01:29:09;;;;;;;5.80;3.40;;;15.60;21.70;;;;;;5081848;28;20461;-85
2023/07/18 01:31:35;;;;;;;6.77;2.90;;;15.60;13.50;;;;;;5086182;28;20443;-84
2023/07/18 01:34:04;;;;;;;4.60;2.70;;;15.60;10.20;;;;;;5086023;28;20884;-84
2023/07/18 01:36:31;;;;;;;5.40;2.90;;;15.60;11.00;;;;;;5084953;28;20678;-84
2023/07/18 01:38:59;;;;;;;5.27;3.00;;;15.50;12.00;;;;;;5085397;28;20478;-83
2023/07/18 01:41:26;;;;;;;6.60;2.93;;;15.50;11.70;;;;;;5084330;28;20542;-85
2023/07/18 01:43:53;;;;;;;5.10;2.90;;;15.50;7.00;;;;;;5086219;28;20483;-83
2023/07/18 01:46:20;;;;;;;6.00;3.10;;;15.50;5.90;;;;;;5084559;28;20474;-84
2023/07/18 01:48:47;;;;;;;3.83;2.70;;;15.50;10.60;;;;;;5084527;28;20561;-84
2023/07/18 01:51:14;;;;;;;6.10;3.60;;;15.50;11.90;;;;;;5085750;28;20449;-84
2023/07/18 01:53:41;;;;;;;6.20;3.23;;;15.50;16.80;;;;;;5086045;28;20478;-84
2023/07/18 01:56:09;;;;;;;4.63;3.03;;;15.50;22.50;;;;;;5086726;28;20617;-84
2023/07/18 01:58:36;;;;;;;4.77;3.50;;;15.50;25.40;;;;;;5087788;28;20517;-83
2023/07/18 02:01:04;;;;;;;4.67;3.07;;;15.40;26.30;;;;;;5085331;28;20454;-83
2023/07/18 02:03:30;;;;;;;5.27;2.97;;;15.40;28.40;;;;;;5084971;28;20541;-83
2023/07/18 02:05:57;;;;;;;4.47;2.87;;;15.40;25.60;;;;;;5085299;28;20527;-81
2023/07/18 02:08:24;;;;;;;4.20;3.17;;;15.40;30.30;;;;;;5088278;28;20447;-83
2023/07/18 02:10:51;;;;;;;4.10;2.70;;;15.50;22.90;;;;;;5084434;28;20465;-82
2023/07/18 02:13:19;;;;;;;3.70;2.27;;;15.40;23.80;;;;;;5086104;28;20478;-83
2023/07/18 02:15:46;;;;;;;5.43;3.57;;;15.40;34.90;;;;;;5084290;28;21064;-83
2023/07/18 02:18:13;;;;;;;3.87;2.30;;;15.40;30.30;;;;;;5084451;28;20481;-82
2023/07/18 02:20:40;;;;;;;4.43;2.80;;;15.40;28.30;;;;;;5084524;28;20839;-82
2023/07/18 02:23:07;;;;;;;6.27;2.80;;;15.40;28.70;;;;;;5089010;28;20554;-84
2023/07/18 02:25:34;;;;;;;4.87;3.23;;;15.40;31.30;;;;;;5095813;28;20461;-84
2023/07/18 02:28:00;;;;;;;4.83;3.20;;;15.30;26.80;;;;;;5096967;28;20462;-83
2023/07/18 02:30:28;;;;;;;4.90;3.53;;;15.30;29.40;;;;;;5097023;28;20462;-84
2023/07/18 02:32:57;;;;;;;6.87;3.10;;;15.30;34.10;;;;;;5097341;28;20792;-81
2023/07/18 02:35:24;;;;;;;4.60;2.87;;;15.30;37.40;;;;;;5094316;28;20883;-82
2023/07/18 02:37:50;;;;;;;4.90;2.90;;;15.30;26.80;;;;;;5083701;28;20454;-83
2023/07/18 02:40:18;;;;;;;4.17;3.20;;;15.30;36.70;;;;;;5084952;28;20552;-82
2023/07/18 02:42:45;;;;;;;4.70;3.20;;;15.30;42.80;;;;;;5085286;28;20858;-81
2023/07/18 02:45:15;;;;;;;4.70;3.00;;;15.20;51.90;;;;;;5083775;28;20545;-82
2023/07/18 02:47:43;;;;;;;5.20;2.50;;;15.20;57.90;;;;;;5083481;28;20553;-83
2023/07/18 02:50:10;;;;;;;6.23;3.47;;;15.20;59.00;;;;;;5083622;28;20454;-82
2023/07/18 02:52:37;;;;;;;4.10;2.40;;;15.20;79.50;;;;;;5091049;28;20537;-84
2023/07/18 02:55:07;;;;;;;4.83;2.50;;;15.20;96.10;;;;;;5093234;28;20490;-82
2023/07/18 02:57:34;;;;;;;5.50;3.00;;;15.20;99.90;;;;;;5092272;28;20467;-83
2023/07/18 03:00:02;;;;;;;5.57;2.93;;;15.20;99.90;;;;;;5092314;28;20455;-84
2023/07/18 03:02:30;;;;;;;4.33;2.77;;;15.10;99.90;;;;;;5090869;28;20542;-82
2023/07/18 03:04:58;;;;;;;4.17;2.90;;;15.10;99.90;;;;;;5089241;28;20446;-84
2023/07/18 03:07:25;;;;;;;4.73;2.60;;;15.20;99.90;;;;;;5089330;28;20489;-84
2023/07/18 03:09:52;;;;;;;5.80;3.47;;;15.10;99.90;;;;;;5090158;28;20502;-81
2023/07/18 03:12:21;;;;;;;5.40;2.90;;;15.10;99.90;;;;;;5072882;28;20481;-82
2023/07/18 03:14:47;;;;;;;5.30;2.70;;;15.10;99.90;;;;;;5084928;28;20450;-84
2023/07/18 03:17:14;;;;;;;4.70;3.40;;;15.10;99.90;;;;;;5086098;28;20509;-83
2023/07/18 03:19:41;;;;;;;4.37;2.30;;;15.10;99.90;;;;;;5084578;28;20454;-83
2023/07/18 03:22:09;;;;;;;4.60;2.50;;;15.10;99.90;;;;;;5085519;28;20562;-82
2023/07/18 03:24:36;;;;;;;4.87;3.30;;;15.10;99.90;;;;;;5088997;28;20454;-81
2023/07/18 03:27:04;;;;;;;6.03;2.60;;;15.10;99.90;;;;;;5088750;28;20893;-82
2023/07/18 03:29:31;;;;;;;4.10;2.70;;;15.10;99.90;;;;;;5090122;28;20473;-82
2023/07/18 03:31:59;;;;;;;6.27;2.77;;;15.10;99.90;;;;;;5090385;28;20532;-82
2023/07/18 03:34:27;;;;;;;4.70;2.90;;;15.10;99.90;;;;;;5086952;28;20475;-83
2023/07/18 03:36:54;;;;;;;5.00;2.40;;;15.10;99.90;;;;;;5080771;28;20502;-82
2023/07/18 03:39:22;;;;;;;7.73;3.60;;;15.10;99.90;;;;;;5082478;28;20969;-82
2023/07/18 03:41:49;;;;;;;3.67;2.50;;;15.00;99.90;;;;;;5082952;28;20484;-82
2023/07/18 03:44:16;;;;;;;5.63;2.60;;;15.00;99.90;;;;;;5082968;28;20479;-81
2023/07/18 03:46:42;;;;;;;4.13;2.90;;;15.00;99.90;;;;;;5080357;28;20550;-81
2023/07/18 03:49:09;;;;;;;6.17;3.00;;;15.00;99.90;;;;;;5082640;28;20454;-81
2023/07/18 03:51:36;;;;;;;4.73;2.70;;;15.00;99.90;;;;;;5081741;28;21033;-82
2023/07/18 03:54:03;;;;;;;4.13;2.70;;;15.00;99.90;;;;;;5083153;28;20541;-81
2023/07/18 03:56:31;;;;;;;4.77;2.90;;;15.00;99.90;;;;;;5082504;28;20506;-82
2023/07/18 03:58:58;;;;;;;4.60;2.90;;;15.00;99.90;;;;;;5082084;28;20486;-82
2023/07/18 04:01:25;;;;;;;5.93;3.00;;;15.00;99.90;;;;;;5080248;28;20467;-82
2023/07/18 04:03:52;;;;;;;4.00;2.77;;;15.00;99.90;;;;;;5082312;28;20558;-81
2023/07/18 04:06:19;;;;;;;4.97;3.40;;;15.00;99.90;;;;;;5082951;28;20482;-82
2023/07/18 04:08:46;;;;;;;4.10;3.13;;;15.00;99.90;;;;;;5082645;28;20464;-82
2023/07/18 04:11:12;;;;;;;8.23;3.23;;;15.00;99.90;;;;;;5083525;28;20912;-81
2023/07/18 04:13:41;;;;;;;3.97;3.30;;;15.00;99.90;;;;;;5083264;28;20489;-81
2023/07/18 04:16:07;;;;;;;4.60;2.97;;;15.00;99.90;;;;;;5082626;28;20474;-80
2023/07/18 04:18:34;;;;;;;4.50;2.30;;;15.00;99.90;;;;;;5084147;28;21026;-82
2023/07/18 04:21:02;;;;;;;5.60;3.30;;;15.00;99.90;;;;;;5077985;28;20460;-80
2023/07/18 04:23:29;;;;;;;5.93;3.53;;;15.00;99.90;;;;;;5076177;28;20481;-81
2023/07/18 04:25:58;;;;;;;5.23;2.83;;;15.00;99.90;;;;;;5059340;28;20532;-81
2023/07/18 04:28:27;;;;;;;4.83;2.90;;;15.10;99.90;;;;;;5080846;28;20836;-81
2023/07/18 04:30:55;;;;;;;4.10;2.73;;;15.00;99.90;;;;;;5081100;28;20473;-81
2023/07/18 04:33:22;;;;;;;4.67;3.30;;;15.10;99.90;;;;;;5080754;28;20454;-83
2023/07/18 04:35:48;;;;;;;7.97;3.03;;;15.10;99.90;;;;;;5086613;28;20926;-82
2023/07/18 04:38:15;;;;;;;3.93;2.47;;;15.20;99.90;;;;;;5084753;28;20486;-80
2023/07/18 04:40:42;;;;;;;7.43;3.37;;;15.20;99.90;;;;;;5082136;28;20485;-82
2023/07/18 04:43:09;;;;;;;6.63;3.37;;;15.20;99.90;;;;;;5074375;28;20566;-83
2023/07/18 04:45:42;;;;;;;5.37;2.97;;;15.30;99.90;;;;;;5081094;28;20829;-81
2023/07/18 04:48:12;;;;;;;4.00;2.70;;;15.30;99.90;;;;;;5084042;28;20545;-81
2023/07/18 04:50:39;;;;;;;3.80;2.80;;;15.40;99.90;;;;;;5083417;28;20534;-82
2023/07/18 04:53:05;;;;;;;4.30;3.10;;;15.40;99.90;;;;;;5083460;28;20895;-82
2023/07/18 04:55:34;;;;;;;10.10;4.27;;;15.50;99.90;;;;;;5083272;28;20521;-82
2023/07/18 04:58:01;;;;;;;5.03;3.40;;;15.50;99.90;;;;;;5083118;28;20464;-82
2023/07/18 05:00:29;;;;;;;5.30;3.40;;;15.60;99.90;;;;;;5083661;28;20534;-81
2023/07/18 05:02:55;;;;;;;4.13;2.47;;;15.60;99.90;;;;;;5083759;28;20513;-81
2023/07/18 05:05:24;;;;;;;5.13;2.40;;;15.70;99.90;;;;;;5081751;28;20459;-81
2023/07/18 05:07:51;;;;;;;6.60;2.77;;;15.70;99.90;;;;;;5080416;28;20467;-80
2023/07/18 05:10:17;;;;;;;5.00;2.77;;;15.80;99.90;;;;;;5056319;28;20512;-81
2023/07/18 05:12:44;;;;;;;4.23;2.80;;;15.80;99.90;;;;;;5079619;28;20462;-81
2023/07/18 05:15:14;;;;;;;9.50;4.60;;;15.90;99.90;;;;;;5078102;28;20452;-80
2023/07/18 05:17:41;;;;;;;4.20;2.40;;;15.90;99.90;;;;;;5077422;28;20500;-81
2023/07/18 05:20:10;;;;;;;4.07;2.53;;;15.90;99.90;;;;;;5022174;28;20530;-80
2023/07/18 05:22:39;;;;;;;4.00;2.73;;;16.00;99.90;;;;;;5057530;28;20578;-79
2023/07/18 05:25:07;;;;;;;4.83;2.50;;;16.00;98.00;;;;;;5064061;28;20471;-78
2023/07/18 05:27:34;;;;;;;6.07;2.97;;;16.10;47.10;;;;;;5070306;28;20478;-79
2023/07/18 05:30:00;;;;;;;6.10;2.90;;;16.20;53.80;;;;;;5074305;28;20843;-80
2023/07/18 05:32:27;;;;;;;4.70;2.37;;;16.20;1.00;;;;;;5077119;28;20460;-79
2023/07/18 05:34:54;;;;;;;4.13;2.50;;;16.20;1.00;;;;;;5078260;28;20823;-80
2023/07/18 05:37:24;;;;;;;6.10;2.90;;;16.30;1.00;;;;;;5073065;28;20558;-81
2023/07/18 05:39:53;;;;;;;6.40;2.60;;;16.40;1.00;;;;;;5074755;28;20516;-79
2023/07/18 05:42:19;;;;;;;5.10;2.73;;;16.50;1.00;;;;;;5074332;28;20466;-79
2023/07/18 05:44:46;;;;;;;4.83;3.13;;;16.50;1.00;;;;;;5075372;28;20463;-80
2023/07/18 05:47:13;;;;;;;4.07;2.70;;;16.50;99.90;;;;;;5090913;22;20500;-80
2023/07/18 05:49:40;;;;;;;3.67;2.50;;;16.60;99.90;;;;;;5075813;28;20466;-79
2023/07/18 05:52:07;;;;;;;4.13;2.33;;;16.70;99.90;;;;;;5075736;28;20518;-80
2023/07/18 05:54:34;;;;;;;6.10;2.40;;;16.70;99.90;;;;;;5075270;28;20458;-79
2023/07/18 05:57:03;;;;;;;5.40;3.07;;;16.80;99.90;;;;;;5074571;28;20475;-80
2023/07/18 05:59:30;;;;;;;3.60;1.97;;;16.90;1.00;;;;;;5074443;28;20456;-80
2023/07/18 06:01:57;;;;;;;2.83;1.93;;;17.00;1.00;;;;;;5074943;28;20445;-79
2023/07/18 06:04:24;;;;;;;9.00;2.43;;;17.00;1.00;;;;;;5075419;28;20592;-81
2023/07/18 06:06:51;;;;;;;5.73;2.10;;;17.10;1.00;;;;;;5074968;28;20592;-80
2023/07/18 06:09:17;;;;;;;5.00;2.67;;;17.10;99.90;;;;;;5075343;28;20455;-81
2023/07/18 06:11:44;;;;;;;4.53;2.63;;;17.20;99.90;;;;;;5075801;28;21029;-81
2023/07/18 06:14:12;;;;;;;5.03;2.10;;;17.20;99.90;;;;;;5074432;28;20486;-81
2023/07/18 06:16:39;;;;;;;5.33;2.50;;;17.20;1.00;;;;;;5074400;28;21067;-78
2023/07/18 06:19:06;;;;;;;3.80;2.47;;;17.30;1.60;;;;;;5071847;28;20465;-79
2023/07/18 06:21:33;;;;;;;5.13;3.23;;;17.20;2.60;;;;;;5071070;28;20452;-79
2023/07/18 06:24:00;;;;;;;5.63;2.97;;;17.30;99.90;;;;;;5074872;28;20517;-80
2023/07/18 06:26:26;;;;;;;4.03;2.63;;;17.40;99.90;;;;;;5068475;28;20549;-80
2023/07/18 06:28:53;;;;;;;3.80;2.20;;;17.50;99.90;;;;;;5074611;28;20975;-81
2023/07/18 06:31:22;;;;;;;5.13;2.87;;;17.50;1.00;;;;;;5074823;28;20452;-80
2023/07/18 06:33:49;;;;;;;4.90;1.97;;;17.50;99.90;;;;;;5075703;28;20465;-81
2023/07/18 06:36:16;;;;;;;5.37;2.83;;;17.60;1.00;;;;;;5074797;28;20487;-79
2023/07/18 06:38:43;;;;;;;3.80;2.03;;;17.60;1.00;;;;;;5074658;28;20520;-80
2023/07/18 06:41:12;;;;;;;4.50;1.90;;;17.60;99.90;;;;;;5073534;28;20453;-80
2023/07/18 06:43:40;;;;;;;5.40;2.30;;;17.60;1.00;;;;;;5069140;28;21014;-81
2023/07/18 06:46:06;;;;;;;4.87;1.97;;;17.70;1.00;;;;;;5073846;28;20532;-80
2023/07/18 06:48:35;;;;;;;4.27;1.90;;;17.70;1.00;;;;;;5073194;28;20472;-80
2023/07/18 06:51:06;;;;;;;4.33;2.07;;;17.80;40.30;;;;;;5071696;28;20526;-81
2023/07/18 06:53:34;;;;;;;6.23;2.73;;;17.80;99.90;;;;;;5076036;28;20449;-77
2023/07/18 06:56:00;;;;;;;3.90;2.00;;;17.90;1.00;;;;;;5074737;28;20833;-81
2023/07/18 06:58:27;;;;;;;7.50;2.63;;;17.90;99.90;;;;;;5073486;28;20458;-80
2023/07/18 07:00:54;;;;;;;8.13;2.30;;;18.00;99.90;;;;;;5073974;28;20972;-79
2023/07/18 07:03:21;;;;;;;4.87;2.40;;;18.10;99.90;;;;;;5072720;28;20998;-78
2023/07/18 07:05:49;;;;;;;4.73;2.10;;;18.10;4.70;;;;;;5070251;28;20462;-79
2023/07/18 07:08:18;;;;;;;4.10;2.30;;;18.10;99.90;;;;;;5073248;28;20480;-79
2023/07/18 07:10:46;;;;;;;2.77;1.47;;;18.20;99.90;;;;;;5071538;28;21020;-80
2023/07/18 07:13:13;;;;;;;5.50;2.10;;;18.30;99.90;;;;;;5082342;28;20444;-80
2023/07/18 07:15:40;;;;;;;4.30;1.83;;;18.40;92.00;;;;;;5072729;28;20480;-79
2023/07/18 07:18:07;;;;;;;5.00;2.00;;;18.40;21.40;;;;;;5071645;28;20863;-80
2023/07/18 07:20:34;;;;;;;3.97;1.53;;;18.40;99.90;;;;;;5071668;28;20484;-79
2023/07/18 07:23:03;;;;;;;7.53;2.23;;;18.50;1.00;;;;;;5067733;28;20477;-79
2023/07/18 07:25:33;;;;;;;4.40;2.03;;;18.50;1.00;;;;;;5069198;28;20455;-77
2023/07/18 07:28:00;;;;;;;3.70;1.73;;;18.60;99.90;;;;;;5075617;28;20478;-75
2023/07/18 07:30:27;;;;;;;6.43;1.97;;;18.70;99.90;;;;;;5074236;28;20459;-78
2023/07/18 07:32:54;;;;;;;6.83;2.17;;;18.70;99.90;;;;;;5074756;28;21147;-78
2023/07/18 07:35:22;;;;;;;4.83;1.73;;;18.80;99.90;;;;;;5069315;28;20476;-77
2023/07/18 07:37:51;;;;;;;3.40;2.30;;;18.80;1.00;;;;;;5073902;28;21002;-79
2023/07/18 07:40:20;;;;;;;5.60;2.03;;;18.90;99.90;;;;;;5078975;28;20455;-79
2023/07/18 07:42:47;;;;;;;4.67;1.90;;;19.00;99.90;;;;;;5081784;28;20454;-80
2023/07/18 07:45:15;;;;;;;4.30;1.70;;;19.10;99.90;;;;;;5075195;28;20451;-79
2023/07/18 07:47:42;;;;;;;3.10;1.60;;;19.10;29.80;;;;;;5074849;28;20481;-81
2023/07/18 07:50:09;;;;;;;6.00;2.77;;;19.30;99.90;;;;;;5072798;28;20447;-76
2023/07/18 07:52:36;;;;;;;2.63;1.70;;;19.30;1.00;;;;;;5048571;28;20452;-77
2023/07/18 07:55:04;;;;;;;3.57;1.50;;;19.30;1.00;;;;;;5071033;28;20445;-79
2023/07/18 07:57:32;;;;;;;4.93;2.00;;;19.40;1.00;;;;;;5056860;28;21291;-81
2023/07/18 07:59:59;;;;;;;4.93;1.90;;;19.50;1.00;;;;;;5074919;28;21237;-81
2023/07/18 08:02:26;;;;;;;2.97;1.80;;;19.50;1.00;;;;;;5076359;28;20543;-82
2023/07/18 08:04:53;;;;;;;3.23;1.90;;;19.60;1.00;;;;;;5074831;28;20481;-79
2023/07/18 08:07:20;;;;;;;3.87;1.90;;;19.70;1.00;;;;;;5074706;28;20467;-82
2023/07/18 08:09:46;;;;;;;7.63;1.60;;;19.70;1.00;;;;;;5077120;28;20451;-81
2023/07/18 08:12:13;;;;;;;3.63;1.70;;;19.80;1.00;;;;;;5076159;28;21010;-81
2023/07/18 08:14:42;;;;;;;4.30;1.80;;;19.90;1.00;;;;;;5076980;28;20453;-79
2023/07/18 08:17:09;;;;;;;4.10;1.80;;;19.90;1.00;;;;;;5076443;28;20471;-80
2023/07/18 08:19:36;;;;;;;5.90;1.77;;;20.10;1.00;;;;;;5076774;28;20459;-82
2023/07/18 08:22:03;;;;;;;4.50;1.93;;;20.20;1.00;;;;;;5070580;28;20447;-81
2023/07/18 08:24:30;;;;;;;4.40;1.97;;;20.20;1.00;;;;;;5074849;28;20485;-82
2023/07/18 08:26:58;;;;;;;6.67;1.70;;;20.30;1.00;;;;;;5076293;28;20479;-81
2023/07/18 08:29:25;;;;;;;6.50;2.17;;;20.40;1.00;;;;;;5076293;28;20451;-80
2023/07/18 08:31:54;;;;;;;3.70;1.50;;;20.50;1.00;;;;;;5075162;28;20792;-80
2023/07/18 08:34:21;;;;;;;6.73;1.87;;;20.60;1.00;;;;;;5078300;28;20450;-79
2023/07/18 08:36:48;;;;;;;4.93;1.50;;;20.60;1.00;;;;;;5076789;28;20477;-80
2023/07/18 08:39:15;;;;;;;3.90;1.90;;;20.70;99.90;;;;;;5077112;28;21148;-81
2023/07/18 08:41:43;;;;;;;5.73;1.80;;;20.80;99.90;;;;;;5077273;28;20457;-81
2023/07/18 08:44:13;;;;;;;4.57;1.23;;;20.90;1.00;;;;;;5072088;28;20491;-78
2023/07/18 08:46:42;;;;;;;5.00;1.77;;;21.00;99.90;;;;;;5065736;28;21639;-79
2023/07/18 08:49:15;;;;;;;4.47;1.27;;;21.20;99.90;;;;;;5070270;28;20463;-76
2023/07/18 08:51:42;;;;;;;3.70;1.10;;;21.30;99.90;;;;;;5051637;28;21252;-81
2023/07/18 08:54:10;;;;;;;2.93;1.30;;;21.50;99.90;;;;;;5070211;28;20447;-81
2023/07/18 08:56:40;;;;;;;3.40;1.43;;;21.60;99.90;;;;;;5074120;28;20466;-81
2023/07/18 08:59:07;;;;;;;3.97;1.47;;;21.60;99.90;;;;;;5075310;28;20459;-81
2023/07/18 09:01:45;;;;;;;4.83;1.10;;;21.70;99.90;;;;;;5073564;28;20478;-78
2023/07/18 09:04:13;;;;;;;2.77;1.50;;;21.80;99.90;;;;;;5076670;28;20471;-82
2023/07/18 09:06:47;;;;;;;4.40;1.07;;;22.10;99.90;;;;;;5069531;28;20481;-79
2023/07/18 09:09:21;;;;;;;2.13;1.10;;;22.20;99.90;;;;;;5075669;28;20455;-81
2023/07/18 09:11:58;;;;;;;2.20;1.10;;;22.40;99.90;;;;;;5076330;28;20443;-81
2023/07/18 09:14:26;;;;;;;2.33;1.10;;;22.70;99.90;;;;;;5075792;28;20978;-80
2023/07/18 09:16:54;;;;;;;4.20;1.50;;;22.90;99.90;;;;;;5065897;28;20513;-81
2023/07/18 09:19:36;;;;;;;3.03;1.00;;;23.10;99.90;;;;;;5070125;28;20477;-80
2023/07/18 09:22:04;;;;;;;6.30;1.43;;;23.10;99.90;;;;;;5072735;28;20447;-80
2023/07/18 09:24:31;;;;;;;2.77;1.50;;;23.30;99.90;;;;;;5074534;28;20487;-82
2023/07/18 09:26:58;;;;;;;2.27;1.10;;;23.40;99.90;;;;;;5076253;28;20497;-81
2023/07/18 09:29:25;;;;;;;3.20;1.10;;;23.50;99.90;;;;;;5074381;28;20451;-80
2023/07/18 09:31:52;;;;;;;3.70;0.97;;;23.70;99.90;;;;;;5076169;28;20462;-81
2023/07/18 09:34:26;;;;;;;3.70;1.20;;;23.90;99.90;;;;;;5077025;28;20533;-84
2023/07/18 09:36:57;;;;;;;3.13;1.37;;;24.00;99.90;;;;;;5078166;28;20477;-85
2023/07/18 09:39:25;;;;;;;2.77;1.50;;;24.00;99.90;;;;;;5078052;28;20520;-83
2023/07/18 09:41:52;;;;;;;5.57;1.67;;;24.00;99.90;;;;;;5077052;28;20454;-82
2023/07/18 09:44:20;;;;;;;2.77;1.10;;;23.80;99.90;;;;;;5077260;28;20578;-82
2023/07/18 09:46:47;;;;;;;3.77;1.67;;;23.70;99.90;;;;;;5076760;28;20478;-82
2023/07/18 09:49:14;;;;;;;2.90;1.30;;;23.50;99.90;;;;;;5077083;28;20447;-81
2023/07/18 09:51:47;;;;;;;2.87;1.50;;;23.50;99.90;;;;;;5078348;28;20447;-83
2023/07/18 09:54:15;;;;;;;5.33;1.70;;;23.60;99.90;;;;;;5071339;28;20875;-85
2023/07/18 09:56:45;;;;;;;4.17;1.40;;;23.70;99.90;;;;;;5066921;28;20470;-79
2023/07/18 09:59:12;;;;;;;4.33;1.43;;;23.60;99.90;;;;;;5059128;28;20483;-81
2023/07/18 10:01:39;;;;;;;2.60;1.10;;;23.60;99.90;;;;;;5073646;28;20457;-81
2023/07/18 10:04:07;;;;;;;2.30;1.10;;;23.90;99.90;;;;;;5075662;28;20486;-81
2023/07/18 10:06:35;;;;;;;3.50;1.17;;;24.10;99.90;;;;;;5071862;28;20482;-79
2023/07/18 10:09:04;;;;;;;3.13;1.47;;;24.60;99.90;;;;;;5074217;28;20461;-81
2023/07/18 10:11:31;;;;;;;2.93;1.50;;;25.00;99.90;;;;;;5074941;28;20443;-81
2023/07/18 10:14:13;;;;;;;3.10;1.50;;;25.20;99.90;;;;;;5076138;28;20806;-82
2023/07/18 10:16:43;;;;;;;5.60;1.80;;;25.00;99.90;;;;;;5076175;28;20898;-80
2023/07/18 10:19:18;;;;;;;2.40;1.30;;;25.20;99.90;;;;;;5075776;28;20465;-81
2023/07/18 10:21:46;;;;;;;3.70;1.50;;;25.30;99.90;;;;;;5075776;28;20500;-82
2023/07/18 10:24:31;;;;;;;3.63;1.50;;;25.70;99.90;;;;;;5076205;28;20478;-81
2023/07/18 10:27:07;;;;;;;3.03;1.53;;;25.90;99.90;;;;;;5076539;28;20504;-82
2023/07/18 10:29:38;;;;;;;5.87;1.57;;;25.70;99.90;;;;;;5073743;28;20958;-80
2023/07/18 10:32:09;;;;;;;3.40;1.50;;;25.60;99.90;;;;;;5082052;28;20445;-82
2023/07/18 10:34:38;;;;;;;3.77;1.40;;;25.60;99.90;;;;;;5074604;28;20428;-81
2023/07/18 10:37:07;;;;;;;2.67;1.27;;;25.40;99.90;;;;;;5074527;28;20469;-81
2023/07/18 10:39:40;;;;;;;4.40;1.57;;;25.00;99.90;;;;;;5072032;28;20907;-80
2023/07/18 10:42:19;;;;;;;2.40;1.30;;;24.60;99.90;;;;;;5074327;28;20447;-82
2023/07/18 10:44:46;;;;;;;3.47;1.63;;;24.30;99.90;;;;;;5076526;28;20481;-81
2023/07/18 10:47:14;;;;;;;2.93;1.70;;;24.10;99.90;;;;;;5078827;28;20493;-82
2023/07/18 10:49:41;;;;;;;5.00;3.17;;;23.90;99.90;;;;;;5080568;28;20516;-81
2023/07/18 10:52:08;;;;;;;3.83;1.73;;;23.90;99.90;;;;;;5077087;28;20461;-80
2023/07/18 10:54:35;;;;;;;5.53;1.80;;;23.80;99.90;;;;;;5078695;28;20434;-82
2023/07/18 10:57:04;;;;;;;5.20;3.20;;;23.80;99.90;;;;;;5074233;28;20466;-82
2023/07/18 10:59:31;;;;;;;8.37;2.83;;;23.90;99.90;;;;;;5075189;28;20451;-81
2023/07/18 11:02:01;;;;;;;3.70;2.63;;;23.80;99.90;;;;;;5074817;28;20451;-81
2023/07/18 11:04:29;;;;;;;5.73;2.83;;;23.90;99.90;;;;;;5075576;28;20818;-81
2023/07/18 11:06:58;;;;;;;6.10;2.07;;;23.90;99.90;;;;;;5074142;28;20532;-82
2023/07/18 11:09:24;;;;;;;2.80;1.80;;;23.80;99.90;;;;;;5070714;28;20512;-82
2023/07/18 11:11:51;;;;;;;3.27;1.97;;;23.70;99.90;;;;;;5075207;28;20450;-82
2023/07/18 11:14:20;;;;;;;4.90;2.50;;;23.60;99.90;;;;;;5078087;28;20442;-82
2023/07/18 11:16:47;;;;;;;5.10;3.20;;;23.50;99.90;;;;;;5078690;28;20478;-83
2023/07/18 11:19:15;;;;;;;5.97;2.43;;;23.50;99.90;;;;;;5077679;28;20569;-80
2023/07/18 11:21:43;;;;;;;8.10;2.60;;;23.40;99.90;;;;;;5075803;28;20459;-81
2023/07/18 11:24:10;;;;;;;3.73;2.27;;;23.40;99.90;;;;;;5078854;28;20451;-82
2023/07/18 11:26:36;;;;;;;4.20;1.53;;;23.40;99.90;;;;;;5079739;28;20470;-82
2023/07/18 11:29:05;;;;;;;3.10;1.47;;;23.50;99.90;;;;;;5082533;28;20463;-82
2023/07/18 11:31:39;;;;;;;4.07;2.13;;;23.70;99.90;;;;;;5078453;28;20537;-81
2023/07/18 11:34:06;;;;;;;3.10;1.67;;;23.70;99.90;;;;;;5077427;28;20537;-81
2023/07/18 11:36:35;;;;;;;3.50;1.33;;;23.90;99.90;;;;;;5074592;28;20466;-81
2023/07/18 11:39:04;;;;;;;6.47;2.90;;;24.10;99.90;;;;;;5077773;28;20454;-82
2023/07/18 11:41:34;;;;;;;5.13;2.63;;;24.30;99.90;;;;;;5076814;28;20455;-82
2023/07/18 11:44:02;;;;;;;6.03;3.73;;;25.00;99.90;;;;;;5072335;28;20466;-80
2023/07/18 11:46:41;;;;;;;5.13;2.47;;;25.60;99.90;;;;;;5092097;22;20467;-82
2023/07/18 11:49:10;;;;;;;4.00;1.77;;;25.90;99.90;;;;;;5063086;28;20535;-81
2023/07/18 11:51:38;;;;;;;4.87;1.63;;;25.80;99.90;;;;;;5066170;28;20455;-82
2023/07/18 11:54:05;;;;;;;2.83;1.33;;;26.00;99.90;;;;;;5063709;28;20448;-79
2023/07/18 11:56:34;;;;;;;2.80;1.57;;;26.20;99.90;;;;;;5059032;28;20443;-82
2023/07/18 11:59:01;;;;;;;3.70;1.70;;;26.30;99.90;;;;;;5033503;28;20889;-79
2023/07/18 12:01:28;;;;;;;3.80;1.57;;;26.00;99.90;;;;;;5038480;28;20441;-82
2023/07/18 12:03:56;;;;;;;2.87;1.60;;;25.90;99.90;;;;;;5046853;28;20444;-81
2023/07/18 12:06:23;;;;;;;4.17;1.83;;;25.90;99.90;;;;;;5038412;28;20476;-81
2023/07/18 12:08:52;;;;;;;6.93;2.10;;;25.80;99.90;;;;;;5038051;28;20523;-80
2023/07/18 12:11:21;;;;;;;3.30;1.83;;;26.10;99.90;;;;;;5039618;28;20453;-82
2023/07/18 12:13:47;;;;;;;3.50;1.63;;;26.60;99.90;;;;;;5038542;28;20827;-82
2023/07/18 12:16:14;;;;;;;3.77;1.50;;;27.10;99.90;;;;;;5039514;28;20547;-83
2023/07/18 12:18:41;;;;;;;3.40;1.57;;;27.50;99.90;;;;;;5038773;28;20477;-82
2023/07/18 12:21:10;;;;;;;3.73;1.60;;;27.30;99.90;;;;;;5039075;28;20524;-82
2023/07/18 12:23:36;;;;;;;6.00;2.00;;;27.20;99.90;;;;;;5037863;28;20540;-82
2023/07/18 12:26:03;;;;;;;2.87;1.70;;;27.50;99.90;;;;;;5038749;28;20796;-81
2023/07/18 12:28:30;;;;;;;4.93;2.10;;;28.00;99.90;;;;;;5046059;28;20485;-82
2023/07/18 12:30:59;;;;;;;4.83;1.87;;;28.70;99.90;;;;;;5039426;28;20502;-84
2023/07/18 12:33:26;;;;;;;9.13;1.93;;;28.80;99.90;;;;;;5039865;28;20509;-81
2023/07/18 12:35:53;;;;;;;5.67;3.03;;;29.00;99.90;;;;;;5038471;28;20540;-80
2023/07/18 12:38:21;;;;;;;3.13;1.63;;;29.00;99.90;;;;;;5039741;28;20467;-82
2023/07/18 12:40:48;;;;;;;3.33;1.77;;;29.10;99.90;;;;;;5039366;28;20531;-83
2023/07/18 12:43:14;;;;;;;2.83;1.50;;;29.30;99.90;;;;;;5040050;28;20481;-82
2023/07/18 12:45:41;;;;;;;2.67;1.50;;;29.30;99.90;;;;;;5038271;28;20886;-82
2023/07/18 12:48:08;;;;;;;3.53;1.33;;;28.90;99.90;;;;;;5039527;28;20559;-81
2023/07/18 12:50:35;;;;;;;3.23;1.60;;;29.00;99.90;;;;;;5038687;28;21000;-82